Time;durP1;ratioP1;P1;durP2;ratioP2;P2;SDS_P1;SDS_P2;PMS_P1;PMS_P2;Temp;Humidity;BMP_temperature;BMP_pressure;BME280_temperature;BME280_humidity;BME280_pressure;Samples;Min_cycle;Max_cycle;Signal;HPM_P1;HPM_P2
2021/12/08 00:00:10;;;;;;;7.43;2.90;;;6.90;90.00;;;;;;5093767;28;20115;-74
2021/12/08 00:02:35;;;;;;;7.15;3.30;;;6.90;90.10;;;;;;5080797;28;20059;-74
2021/12/08 00:05:01;;;;;;;7.60;2.88;;;6.90;90.10;;;;;;5080180;28;20079;-74
2021/12/08 00:07:27;;;;;;;5.85;2.35;;;6.90;90.40;;;;;;5093483;28;20040;-73
2021/12/08 00:10:13;;;;;;;1.67;1.30;;;6.80;90.30;;;;;;5081150;28;20112;-75
2021/12/08 00:15:25;;;;;;;3.80;2.10;;;6.80;90.10;;;;;;5086645;28;20467;-74
2021/12/08 00:17:50;;;;;;;5.93;2.90;;;6.80;90.20;;;;;;5080774;28;20024;-74
2021/12/08 00:20:16;;;;;;;19.15;6.93;;;6.80;90.30;;;;;;5079324;28;20349;-74
2021/12/08 00:22:42;;;;;;;10.05;2.60;;;6.80;90.40;;;;;;5093833;28;20066;-74
2021/12/08 00:25:08;;;;;;;5.45;2.30;;;6.70;90.20;;;;;;5093295;28;20064;-74
2021/12/08 00:27:33;;;;;;;5.60;2.83;;;6.70;90.20;;;;;;5085202;28;20032;-73
2021/12/08 00:29:59;;;;;;;6.72;2.08;;;6.70;90.50;;;;;;5086641;28;20032;-74
2021/12/08 00:32:28;;;;;;;2.70;1.55;;;6.70;90.50;;;;;;5093476;28;20032;-74
2021/12/08 00:34:54;;;;;;;9.45;2.58;;;6.70;90.80;;;;;;5092746;28;20035;-74
2021/12/08 00:37:20;;;;;;;3.72;1.77;;;6.70;90.80;;;;;;5084290;28;20460;-74
2021/12/08 00:39:46;;;;;;;9.43;3.13;;;6.70;91.00;;;;;;5072029;28;20158;-74
2021/12/08 00:42:12;;;;;;;9.07;2.75;;;6.60;90.80;;;;;;5082657;28;20122;-74
2021/12/08 00:44:38;;;;;;;3.17;1.75;;;6.60;90.80;;;;;;5093385;28;20031;-74
2021/12/08 00:47:04;;;;;;;7.00;3.13;;;6.60;90.80;;;;;;5092533;28;20494;-74
2021/12/08 00:49:30;;;;;;;7.60;2.85;;;6.60;90.80;;;;;;5092426;28;20024;-74
2021/12/08 00:51:56;;;;;;;4.63;1.98;;;6.60;90.90;;;;;;5092626;28;20032;-74
2021/12/08 00:54:22;;;;;;;6.78;3.05;;;6.50;90.90;;;;;;5092208;28;20044;-74
2021/12/08 00:56:47;;;;;;;9.32;1.98;;;6.60;91.00;;;;;;5092842;28;20036;-74
2021/12/08 00:59:13;;;;;;;4.35;2.25;;;6.60;91.10;;;;;;5093101;28;20107;-74
2021/12/08 01:01:39;;;;;;;2.88;1.73;;;6.60;91.10;;;;;;5092230;28;20132;-74
2021/12/08 01:04:06;;;;;;;5.00;2.60;;;6.60;91.10;;;;;;5092981;28;20035;-74
2021/12/08 01:06:32;;;;;;;3.35;1.52;;;6.50;91.20;;;;;;5092654;28;20383;-74
2021/12/08 01:08:57;;;;;;;6.50;2.47;;;6.50;91.20;;;;;;5092083;28;20035;-74
2021/12/08 01:11:26;;;;;;;4.55;2.03;;;6.50;91.30;;;;;;5092499;28;20389;-74
2021/12/08 01:13:53;;;;;;;8.75;2.85;;;6.50;91.30;;;;;;5092690;28;20434;-74
2021/12/08 01:16:20;;;;;;;5.15;2.15;;;6.50;91.30;;;;;;5092170;28;20436;-74
2021/12/08 01:18:46;;;;;;;10.38;3.20;;;6.50;91.30;;;;;;5092545;28;20109;-74
2021/12/08 01:21:13;;;;;;;6.85;2.38;;;6.50;91.40;;;;;;5084691;28;20425;-74
2021/12/08 01:23:39;;;;;;;5.10;2.58;;;6.40;91.40;;;;;;5091454;28;20068;-74
2021/12/08 01:26:07;;;;;;;11.90;1.80;;;6.50;91.50;;;;;;5087892;28;20064;-74
2021/12/08 01:28:34;;;;;;;1.80;1.05;;;6.50;91.60;;;;;;5090741;28;20036;-74
2021/12/08 01:31:01;;;;;;;5.78;2.60;;;6.50;91.60;;;;;;5082725;28;20514;-74
2021/12/08 01:33:30;;;;;;;7.70;2.38;;;6.50;91.60;;;;;;5091099;28;20044;-74
2021/12/08 01:35:56;;;;;;;1.40;1.30;;;6.50;91.60;;;;;;5087250;28;20428;-74
2021/12/08 01:38:23;;;;;;;6.32;2.75;;;6.50;91.70;;;;;;5090510;28;20402;-74
2021/12/08 01:40:49;;;;;;;5.97;2.65;;;6.50;91.80;;;;;;5086163;28;20029;-74
2021/12/08 01:43:28;;;;;;;3.90;2.13;;;6.50;91.80;;;;;;5077679;28;20039;-74
2021/12/08 01:46:05;;;;;;;4.28;1.95;;;6.50;91.80;;;;;;5090614;28;20076;-74
2021/12/08 01:48:37;;;;;;;4.93;2.55;;;6.50;91.80;;;;;;5075823;28;20021;-74
2021/12/08 01:51:10;;;;;;;3.90;1.85;;;6.40;91.80;;;;;;5087487;28;20048;-74
2021/12/08 01:53:39;;;;;;;7.53;2.53;;;6.50;91.80;;;;;;5084310;28;20043;-74
2021/12/08 01:56:07;;;;;;;6.22;2.28;;;6.50;91.80;;;;;;5092158;28;20484;-74
2021/12/08 01:58:33;;;;;;;4.68;2.72;;;6.50;91.80;;;;;;5090348;28;20028;-74
2021/12/08 02:01:02;;;;;;;4.15;1.83;;;6.50;91.80;;;;;;5079346;28;20392;-74
2021/12/08 02:03:28;;;;;;;5.95;2.65;;;6.50;91.80;;;;;;5083839;28;20077;-74
2021/12/08 02:05:55;;;;;;;3.55;1.70;;;6.60;91.90;;;;;;5095496;28;20052;-73
2021/12/08 02:08:21;;;;;;;10.02;2.78;;;6.50;91.80;;;;;;5088279;28;20115;-73
2021/12/08 02:10:47;;;;;;;6.35;2.30;;;6.50;91.80;;;;;;5090544;28;20044;-74
2021/12/08 02:13:14;;;;;;;4.03;2.05;;;6.60;91.90;;;;;;5095380;28;20097;-74
2021/12/08 02:15:40;;;;;;;5.13;1.77;;;6.50;91.90;;;;;;5082468;28;20035;-74
2021/12/08 02:18:11;;;;;;;10.73;2.33;;;6.50;91.90;;;;;;5095560;28;20026;-74
2021/12/08 02:20:38;;;;;;;2.65;1.20;;;6.60;91.90;;;;;;5092596;28;20028;-74
2021/12/08 02:23:04;;;;;;;7.53;2.15;;;6.60;92.00;;;;;;5086142;28;20064;-74
2021/12/08 02:25:30;;;;;;;4.78;2.10;;;6.60;92.00;;;;;;5077791;28;20071;-74
2021/12/08 02:27:58;;;;;;;3.13;2.00;;;6.60;92.00;;;;;;5086595;28;20107;-74
2021/12/08 02:31:11;;;;;;;3.55;2.03;;;6.60;92.00;;;;;;5095671;28;20028;-73
2021/12/08 02:49:29;;;;;;;5.75;2.25;;;6.70;92.10;;;;;;5092069;28;20111;-74
2021/12/08 02:51:55;;;;;;;5.25;1.92;;;6.70;92.40;;;;;;5093769;28;20472;-74
2021/12/08 02:54:21;;;;;;;4.65;2.35;;;6.70;92.20;;;;;;5094782;28;20043;-74
2021/12/08 02:56:47;;;;;;;4.57;1.85;;;6.70;92.20;;;;;;5081743;28;20035;-74
2021/12/08 02:59:12;;;;;;;3.17;1.90;;;6.70;92.20;;;;;;5095251;28;20111;-74
2021/12/08 03:01:39;;;;;;;6.13;2.42;;;6.70;92.20;;;;;;5094569;28;20573;-74
2021/12/08 03:04:06;;;;;;;7.43;2.17;;;6.70;92.30;;;;;;5095274;28;20449;-74
2021/12/08 03:06:33;;;;;;;4.07;1.70;;;6.70;92.30;;;;;;5094931;28;20157;-74
2021/12/08 03:09:00;;;;;;;4.82;1.98;;;6.70;92.30;;;;;;5081069;28;20525;-74
2021/12/08 03:11:26;;;;;;;1.75;1.08;;;6.70;92.30;;;;;;5081602;28;20055;-74
2021/12/08 03:13:59;;;;;;;8.65;2.75;;;6.70;92.20;;;;;;5093712;28;20043;-73
2021/12/08 03:16:26;;;;;;;1.83;1.15;;;6.80;92.30;;;;;;5093904;28;20464;-74
2021/12/08 03:18:52;;;;;;;1.75;0.95;;;6.80;92.20;;;;;;5094844;28;20035;-73
2021/12/08 03:21:18;;;;;;;1.50;1.40;;;6.80;92.10;;;;;;5094360;28;20387;-74
2021/12/08 03:24:06;;;;;;;6.63;2.40;;;6.80;92.10;;;;;;5094287;28;20032;-74
2021/12/08 03:26:32;;;;;;;5.68;1.77;;;6.90;92.10;;;;;;5104292;28;20024;-77
2021/12/08 03:29:03;;;;;;;2.22;1.60;;;6.80;92.10;;;;;;5108021;28;20023;-75
2021/12/08 03:31:34;;;;;;;4.63;1.92;;;6.90;92.10;;;;;;5108641;28;20040;-75
2021/12/08 03:34:00;;;;;;;4.45;1.60;;;6.90;92.10;;;;;;5104588;28;20126;-75
2021/12/08 03:36:26;;;;;;;5.80;1.50;;;6.90;92.10;;;;;;5094077;28;20107;-74
2021/12/08 03:38:52;;;;;;;3.88;1.73;;;6.90;92.00;;;;;;5089175;28;20035;-75
2021/12/08 03:41:18;;;;;;;2.58;1.52;;;6.90;92.00;;;;;;5086532;28;20032;-75
2021/12/08 03:43:43;;;;;;;1.40;1.17;;;6.90;92.00;;;;;;5093802;28;20028;-75
2021/12/08 03:46:12;;;;;;;4.95;1.77;;;6.90;92.00;;;;;;5094595;28;20028;-76
2021/12/08 03:48:48;;;;;;;6.40;2.00;;;6.90;91.90;;;;;;5087740;28;20043;-76
2021/12/08 03:51:15;;;;;;;5.57;1.90;;;6.90;91.90;;;;;;5087914;28;20081;-76
2021/12/08 03:53:41;;;;;;;1.85;1.50;;;6.90;91.90;;;;;;5093897;28;20472;-75
2021/12/08 03:56:07;;;;;;;5.65;2.30;;;7.00;92.20;;;;;;5088936;28;20033;-76
2021/12/08 03:58:33;;;;;;;1.95;1.30;;;7.00;92.00;;;;;;5100467;28;20039;-75
2021/12/08 04:01:01;;;;;;;3.78;1.77;;;7.00;91.90;;;;;;5106034;28;20510;-75
2021/12/08 04:03:30;;;;;;;4.63;1.85;;;7.10;91.90;;;;;;5088729;28;20040;-75
2021/12/08 04:05:59;;;;;;;3.78;1.33;;;7.00;91.90;;;;;;5101261;28;20060;-78
2021/12/08 04:08:38;;;;;;;1.77;1.30;;;7.10;91.80;;;;;;5095570;28;20036;-76
2021/12/08 04:11:06;;;;;;;1.30;1.17;;;7.10;91.70;;;;;;5093019;28;20055;-75
2021/12/08 04:13:42;;;;;;;2.60;1.52;;;7.10;91.60;;;;;;5092249;28;20036;-71
2021/12/08 04:16:10;;;;;;;3.17;1.73;;;7.10;91.70;;;;;;5082042;28;20385;-74
2021/12/08 04:18:36;;;;;;;2.70;1.40;;;7.20;91.60;;;;;;5078985;28;20036;-75
2021/12/08 04:21:04;;;;;;;5.20;2.03;;;7.10;91.60;;;;;;5093820;28;20099;-74
2021/12/08 04:23:36;;;;;;;7.93;2.00;;;7.20;91.60;;;;;;5087872;28;20044;-74
2021/12/08 04:26:06;;;;;;;2.45;1.58;;;7.20;91.60;;;;;;5085907;28;20395;-74
2021/12/08 04:28:34;;;;;;;6.05;2.80;;;7.20;91.60;;;;;;5093542;28;20031;-71
2021/12/08 04:31:17;;;;;;;6.20;1.42;;;7.20;91.60;;;;;;5096417;28;20042;-71
2021/12/08 04:33:44;;;;;;;11.00;1.25;;;7.20;91.50;;;;;;5096637;28;20054;-71
2021/12/08 04:36:13;;;;;;;3.90;2.10;;;7.30;91.40;;;;;;5093607;28;20020;-71
2021/12/08 04:38:43;;;;;;;2.33;1.52;;;7.30;91.40;;;;;;5092802;28;20406;-71
2021/12/08 04:41:14;;;;;;;2.75;1.55;;;7.30;91.40;;;;;;5093271;28;20024;-71
2021/12/08 04:43:57;;;;;;;2.10;1.33;;;7.40;91.30;;;;;;5093252;28;20077;-71
2021/12/08 04:51:41;;;;;;;2.75;1.75;;;7.40;91.20;;;;;;5079429;28;20036;-74
2021/12/08 05:07:52;;;;;;;3.50;2.13;;;7.50;91.10;;;;;;5093902;28;20145;-74
2021/12/08 05:10:27;;;;;;;3.85;2.15;;;7.50;91.10;;;;;;5092718;28;20035;-71
2021/12/08 05:12:53;;;;;;;3.13;1.50;;;7.50;91.10;;;;;;5091523;28;20494;-72
2021/12/08 05:15:41;;;;;;;2.10;1.83;;;7.50;91.10;;;;;;5080679;28;20028;-71
2021/12/08 05:18:21;;;;;;;3.45;2.13;;;7.50;91.10;;;;;;5080798;28;20063;-72
2021/12/08 05:21:04;;;;;;;3.35;1.60;;;7.60;91.10;;;;;;5092559;28;20024;-72
2021/12/08 05:23:39;;;;;;;8.80;2.10;;;7.60;91.10;;;;;;5092728;28;20024;-72
2021/12/08 05:26:12;;;;;;;4.47;2.55;;;7.60;91.10;;;;;;5092846;28;20024;-71
2021/12/08 05:28:40;;;;;;;5.32;2.85;;;7.60;91.10;;;;;;5091529;28;20399;-71
2021/12/08 05:31:10;;;;;;;5.55;3.25;;;7.60;91.10;;;;;;5092636;28;20047;-71
2021/12/08 05:33:38;;;;;;;5.80;2.33;;;7.60;91.20;;;;;;5092130;28;20144;-71
2021/12/08 05:36:05;;;;;;;3.40;2.05;;;7.60;91.10;;;;;;5091297;28;20036;-72
2021/12/08 05:38:31;;;;;;;5.80;2.95;;;7.60;91.10;;;;;;5092166;28;20050;-71
2021/12/08 05:41:05;;;;;;;4.82;3.22;;;7.60;91.10;;;;;;5090289;28;20063;-71
2021/12/08 05:43:31;;;;;;;5.53;2.20;;;7.70;91.20;;;;;;5084721;28;20386;-71
2021/12/08 05:48:19;;;;;;;7.65;3.40;;;7.70;90.90;;;;;;5056189;28;20392;-75
2021/12/08 05:50:50;;;;;;;4.00;2.28;;;7.70;91.10;;;;;;5048563;28;20029;-74
2021/12/08 05:53:17;;;;;;;5.53;3.08;;;7.70;91.20;;;;;;5055111;28;20033;-71
2021/12/08 05:55:44;;;;;;;5.15;3.08;;;7.70;91.20;;;;;;5051667;28;20029;-74
2021/12/08 05:58:11;;;;;;;6.78;2.63;;;7.80;91.30;;;;;;5048391;28;20116;-75
2021/12/08 06:00:50;;;;;;;1.40;1.30;;;7.80;91.20;;;;;;5051982;28;20075;-76
2021/12/08 06:03:17;;;;;;;2.20;1.48;;;7.80;91.10;;;;;;5052877;28;20041;-74
2021/12/08 06:05:46;;;;;;;2.08;1.70;;;7.80;91.10;;;;;;5052354;28;20487;-73
2021/12/08 06:08:12;;;;;;;3.42;2.20;;;7.80;91.10;;;;;;5049389;28;20393;-74
2021/12/08 06:10:39;;;;;;;5.85;2.50;;;7.80;91.00;;;;;;5053609;28;20041;-74
2021/12/08 06:13:08;;;;;;;2.00;1.77;;;7.80;91.00;;;;;;5047766;28;20370;-74
2021/12/08 06:15:35;;;;;;;6.40;2.42;;;7.90;91.00;;;;;;5050248;28;20051;-75
2021/12/08 06:18:01;;;;;;;7.57;2.90;;;7.90;91.00;;;;;;5048863;28;20029;-72
2021/12/08 06:20:26;;;;;;;8.63;3.65;;;7.90;91.00;;;;;;5048710;28;20031;-72
2021/12/08 06:22:55;;;;;;;3.60;2.40;;;7.90;91.00;;;;;;5059526;28;20372;-72
2021/12/08 06:25:21;;;;;;;7.80;3.05;;;7.90;91.00;;;;;;5058465;28;20044;-75
2021/12/08 06:27:47;;;;;;;3.58;1.48;;;8.00;91.10;;;;;;5060078;28;20039;-72
2021/12/08 06:30:17;;;;;;;3.97;2.80;;;8.00;91.00;;;;;;5067069;28;20031;-72
2021/12/08 06:32:43;;;;;;;8.23;3.50;;;8.00;91.00;;;;;;5064609;28;20024;-73
2021/12/08 06:35:12;;;;;;;5.63;2.63;;;8.00;91.10;;;;;;5061864;28;20554;-73
2021/12/08 06:37:41;;;;;;;5.45;3.20;;;8.00;91.10;;;;;;5049992;28;20029;-74
2021/12/08 06:40:24;;;;;;;4.25;2.28;;;8.00;91.10;;;;;;5047410;28;20033;-75
2021/12/08 06:42:56;;;;;;;2.65;1.15;;;8.00;91.10;;;;;;5057534;28;20024;-74
2021/12/08 06:45:27;;;;;;;6.20;2.90;;;8.00;91.00;;;;;;5062726;28;20072;-73
2021/12/08 06:47:55;;;;;;;4.43;2.65;;;8.00;91.10;;;;;;5048236;28;20122;-74
2021/12/08 06:50:26;;;;;;;6.30;2.72;;;8.10;91.00;;;;;;5048882;28;20073;-74
2021/12/08 06:52:52;;;;;;;3.70;2.33;;;8.10;91.00;;;;;;5060890;28;20473;-74
2021/12/08 06:55:22;;;;;;;5.85;3.08;;;8.10;91.00;;;;;;5062018;28;20036;-74
2021/12/08 06:58:04;;;;;;;3.47;1.58;;;8.10;91.10;;;;;;5059285;28;20036;-74
2021/12/08 07:00:55;;;;;;;5.13;2.97;;;8.10;91.00;;;;;;5037542;28;20021;-74
2021/12/08 07:03:39;;;;;;;4.47;2.28;;;8.10;91.00;;;;;;5042009;28;20041;-74
2021/12/08 07:06:18;;;;;;;5.55;3.15;;;8.10;91.00;;;;;;5041735;28;20033;-74
2021/12/08 07:08:50;;;;;;;6.35;3.08;;;8.10;91.10;;;;;;5043508;28;20408;-75
2021/12/08 07:11:21;;;;;;;9.70;4.05;;;8.20;91.10;;;;;;5038080;28;20118;-74
2021/12/08 07:13:51;;;;;;;3.28;2.15;;;8.20;91.10;;;;;;5054439;28;20052;-74
2021/12/08 07:16:22;;;;;;;4.05;2.92;;;8.20;91.00;;;;;;5054798;28;20439;-74
2021/12/08 07:18:54;;;;;;;3.55;2.13;;;8.20;91.10;;;;;;5051645;28;20034;-72
2021/12/08 07:21:24;;;;;;;3.78;2.58;;;8.10;91.10;;;;;;5045029;28;20132;-74
2021/12/08 07:24:04;;;;;;;6.28;3.17;;;8.20;91.10;;;;;;5049672;28;20044;-75
2021/12/08 07:26:33;;;;;;;4.88;2.40;;;8.20;91.10;;;;;;5047645;28;20099;-75
2021/12/08 07:29:00;;;;;;;2.95;1.17;;;8.20;91.10;;;;;;5054196;28;20025;-72
2021/12/08 07:31:30;;;;;;;5.75;2.53;;;8.20;91.10;;;;;;5053232;28;20029;-74
2021/12/08 07:34:03;;;;;;;2.88;1.70;;;8.20;91.00;;;;;;5043421;28;20032;-74
2021/12/08 07:36:31;;;;;;;6.43;3.10;;;8.30;91.00;;;;;;5053872;28;20056;-73
2021/12/08 07:38:59;;;;;;;4.55;1.92;;;8.30;91.00;;;;;;5053776;28;20029;-73
2021/12/08 07:41:32;;;;;;;4.68;2.30;;;8.30;91.00;;;;;;5036718;28;20029;-73
2021/12/08 07:44:04;;;;;;;5.13;2.35;;;8.30;91.00;;;;;;5046859;28;20033;-74
2021/12/08 07:46:35;;;;;;;4.35;2.15;;;8.20;91.00;;;;;;5034097;28;20060;-73
2021/12/08 07:49:04;;;;;;;8.57;2.80;;;8.30;91.00;;;;;;5034482;28;20472;-73
2021/12/08 07:51:37;;;;;;;4.60;2.17;;;8.30;91.00;;;;;;5046074;28;20112;-73
2021/12/08 07:54:05;;;;;;;6.80;3.00;;;8.30;91.00;;;;;;5046903;28;20069;-74
2021/12/08 07:56:32;;;;;;;5.60;2.45;;;8.20;91.00;;;;;;5033093;28;20083;-73
2021/12/08 07:59:02;;;;;;;5.10;2.47;;;8.30;91.00;;;;;;5050667;28;20101;-73
2021/12/08 08:01:40;;;;;;;6.65;2.60;;;8.20;91.00;;;;;;5042943;28;20057;-76
2021/12/08 08:04:11;;;;;;;6.00;2.63;;;8.30;91.00;;;;;;5052982;28;20029;-73
2021/12/08 08:06:41;;;;;;;2.55;1.67;;;8.30;91.00;;;;;;5053359;28;20072;-73
2021/12/08 08:09:13;;;;;;;5.47;3.20;;;8.30;90.90;;;;;;5039489;28;20071;-73
2021/12/08 08:11:42;;;;;;;5.13;2.13;;;8.30;91.00;;;;;;5040487;28;20040;-73
2021/12/08 08:14:10;;;;;;;5.30;2.45;;;8.20;90.90;;;;;;5038779;28;20064;-73
2021/12/08 08:16:39;;;;;;;7.97;2.80;;;8.30;91.00;;;;;;5042918;28;20561;-73
2021/12/08 08:19:12;;;;;;;8.85;2.60;;;8.30;91.00;;;;;;5036995;28;20112;-73
2021/12/08 08:21:40;;;;;;;;;;;8.20;91.00;;;;;;5044778;28;20033;-73
2021/12/08 08:24:07;;;;;;;6.05;2.35;;;8.30;91.00;;;;;;5039100;28;19917;-73
2021/12/08 08:26:34;;;;;;;7.18;2.65;;;8.20;90.90;;;;;;5053771;28;20091;-73
2021/12/08 08:29:05;;;;;;;11.50;2.50;;;8.20;91.00;;;;;;5041931;28;20480;-73
2021/12/08 08:31:41;;;;;;;4.32;1.77;;;8.30;91.00;;;;;;5040290;28;20440;-73
2021/12/08 08:34:09;;;;;;;3.72;2.20;;;8.30;91.10;;;;;;5041630;28;20044;-73
2021/12/08 08:36:42;;;;;;;6.60;2.55;;;8.30;91.00;;;;;;5051564;28;20028;-73
2021/12/08 08:39:18;;;;;;;5.93;2.30;;;8.30;91.00;;;;;;5042639;28;20120;-73
2021/12/08 08:42:01;;;;;;;5.00;2.17;;;8.30;91.00;;;;;;5040229;28;20041;-73
2021/12/08 08:44:34;;;;;;;4.07;2.45;;;8.30;91.00;;;;;;5053193;28;20025;-73
2021/12/08 08:47:07;;;;;;;6.07;2.65;;;8.30;91.00;;;;;;5043920;28;20512;-73
2021/12/08 08:49:34;;;;;;;9.43;2.40;;;8.30;91.00;;;;;;5049262;28;20037;-74
2021/12/08 08:52:09;;;;;;;7.88;2.45;;;8.30;91.00;;;;;;5052688;28;20033;-73
2021/12/08 08:54:44;;;;;;;5.10;1.75;;;8.30;91.00;;;;;;5035715;28;20037;-73
2021/12/08 08:57:17;;;;;;;4.97;2.08;;;8.30;91.00;;;;;;5033182;28;20477;-73
2021/12/08 08:59:54;;;;;;;6.43;2.20;;;8.30;91.00;;;;;;5045628;28;20029;-73
2021/12/08 09:02:30;;;;;;;5.75;2.20;;;8.30;91.00;;;;;;5046438;28;20037;-74
2021/12/08 09:05:00;;;;;;;5.63;1.83;;;8.30;91.00;;;;;;5038049;28;20031;-73
2021/12/08 09:07:39;;;;;;;7.18;1.67;;;8.30;91.00;;;;;;5052313;28;20041;-73
2021/12/08 09:10:40;;;;;;;5.80;1.33;;;8.30;90.90;;;;;;5045032;28;20075;-73
2021/12/08 09:13:17;;;;;;;1.58;1.48;;;8.30;90.90;;;;;;5050298;28;20043;-73
2021/12/08 09:15:50;;;;;;;2.83;1.23;;;8.30;90.90;;;;;;5051202;28;20469;-73
2021/12/08 09:18:39;;;;;;;4.00;1.00;;;8.30;90.90;;;;;;5032876;28;20056;-74
2021/12/08 09:21:18;;;;;;;5.80;1.52;;;8.20;91.00;;;;;;5042536;28;20037;-73
2021/12/08 09:23:52;;;;;;;3.30;1.20;;;8.20;91.10;;;;;;5041991;28;20400;-73
2021/12/08 09:26:19;;;;;;;;;;;8.20;91.20;;;;;;5049955;28;20059;-75
2021/12/08 09:28:53;;;;;;;4.82;1.08;;;8.20;91.20;;;;;;5036533;28;19908;-73
2021/12/08 09:31:26;;;;;;;0.50;0.50;;;8.20;91.30;;;;;;5039381;28;20033;-73
2021/12/08 09:34:00;;;;;;;0.88;0.82;;;8.10;91.30;;;;;;5042580;28;20036;-73
2021/12/08 09:36:39;;;;;;;5.05;1.98;;;8.10;91.40;;;;;;5049434;28;20039;-73
2021/12/08 09:39:12;;;;;;;4.63;1.10;;;8.10;91.50;;;;;;5044969;28;20056;-73
2021/12/08 09:41:46;;;;;;;1.55;0.93;;;8.00;91.60;;;;;;5042595;28;20116;-74
2021/12/08 09:44:19;;;;;;;2.88;1.50;;;8.00;91.70;;;;;;5038721;28;20030;-73
2021/12/08 09:46:47;;;;;;;2.45;1.08;;;8.00;91.80;;;;;;5051172;28;20501;-73
2021/12/08 09:49:16;;;;;;;12.05;2.10;;;8.00;91.90;;;;;;5051719;28;20111;-71
2021/12/08 09:51:43;;;;;;;0.57;0.55;;;7.90;91.90;;;;;;5035507;28;20033;-72
2021/12/08 09:54:09;;;;;;;4.22;1.30;;;8.00;92.00;;;;;;5042987;28;20029;-70
2021/12/08 09:56:35;;;;;;;0.65;0.60;;;7.90;92.10;;;;;;5047470;28;20036;-72
2021/12/08 09:59:05;;;;;;;5.32;2.10;;;7.90;92.10;;;;;;5039153;28;20021;-71
2021/12/08 10:01:32;;;;;;;2.55;1.08;;;7.90;92.20;;;;;;5051930;28;20068;-72
2021/12/08 10:03:59;;;;;;;4.45;2.13;;;7.90;92.20;;;;;;5051737;28;20469;-71
2021/12/08 10:06:26;;;;;;;4.82;1.13;;;7.90;92.20;;;;;;5048847;28;20033;-73
2021/12/08 10:08:57;;;;;;;6.57;1.58;;;8.00;92.30;;;;;;5032323;28;20041;-71
2021/12/08 10:11:25;;;;;;;3.85;1.38;;;8.00;92.30;;;;;;5031054;28;20029;-72
2021/12/08 10:13:51;;;;;;;1.42;1.02;;;8.00;92.30;;;;;;5046379;28;20049;-74
2021/12/08 10:16:17;;;;;;;4.78;1.30;;;8.00;92.30;;;;;;5051575;28;20504;-75
2021/12/08 10:18:43;;;;;;;7.20;1.58;;;8.00;92.30;;;;;;5041231;28;20099;-72
2021/12/08 10:21:10;;;;;;;2.50;1.23;;;8.00;92.20;;;;;;5046409;28;20132;-73
2021/12/08 10:23:42;;;;;;;7.88;1.70;;;8.10;92.30;;;;;;5047475;28;20033;-74
2021/12/08 10:26:23;;;;;;;2.58;1.83;;;8.10;92.20;;;;;;5032033;28;20033;-74
2021/12/08 10:28:52;;;;;;;2.67;1.05;;;8.10;92.30;;;;;;5037170;28;20702;-74
2021/12/08 10:31:30;;;;;;;7.45;1.77;;;8.10;92.30;;;;;;5030875;28;20455;-74
2021/12/08 10:36:46;;;;;;;1.08;0.85;;;8.10;92.30;;;;;;5055077;28;20445;-73
2021/12/08 10:39:30;;;;;;;7.10;1.63;;;8.20;92.30;;;;;;5039444;28;20378;-73
2021/12/08 10:42:05;;;;;;;2.25;1.52;;;8.10;92.30;;;;;;5049882;28;20032;-73
2021/12/08 10:44:43;;;;;;;1.90;0.95;;;8.10;92.30;;;;;;5035990;28;20033;-73
2021/12/08 10:47:10;;;;;;;2.95;1.45;;;8.20;92.40;;;;;;5036041;28;20403;-74
2021/12/08 10:54:56;;;;;;;1.95;1.15;;;8.20;92.80;;;;;;5043293;28;20484;-74
2021/12/08 10:57:31;;;;;;;1.73;1.00;;;8.10;92.50;;;;;;5045431;28;20037;-74
2021/12/08 11:00:28;;;;;;;2.47;1.75;;;8.20;92.50;;;;;;5052483;28;20083;-74
2021/12/08 11:03:00;;;;;;;4.53;1.45;;;8.20;92.50;;;;;;5046421;28;20036;-74
2021/12/08 11:05:25;;;;;;;5.70;1.23;;;8.20;92.80;;;;;;5054939;28;20426;-74
2021/12/08 11:08:32;;;;;;;7.57;1.45;;;8.20;92.50;;;;;;5037830;28;20033;-72
2021/12/08 11:11:02;;;;;;;11.77;2.40;;;8.30;92.50;;;;;;5034526;28;20033;-72
2021/12/08 11:13:32;;;;;;;11.73;1.63;;;8.30;92.50;;;;;;5034444;28;20040;-73
2021/12/08 11:16:12;;;;;;;1.88;0.90;;;8.30;92.50;;;;;;5038411;28;20013;-73
2021/12/08 11:18:40;;;;;;;1.42;0.82;;;8.40;92.60;;;;;;5055130;28;20148;-72
2021/12/08 11:21:21;;;;;;;2.08;1.00;;;8.40;92.60;;;;;;5053473;28;20032;-73
2021/12/08 11:23:49;;;;;;;7.60;1.90;;;8.40;92.50;;;;;;5041671;28;20044;-73
2021/12/08 11:26:25;;;;;;;10.13;1.67;;;8.50;92.50;;;;;;5045936;28;20028;-73
2021/12/08 11:29:18;;;;;;;1.20;1.05;;;8.60;92.40;;;;;;5036539;28;20045;-73
2021/12/08 11:31:50;;;;;;;2.40;0.95;;;8.70;92.30;;;;;;5036415;28;20530;-74
2021/12/08 11:34:17;;;;;;;11.43;1.65;;;8.70;92.20;;;;;;5034521;28;20038;-75
2021/12/08 11:36:45;;;;;;;8.35;2.05;;;8.70;92.10;;;;;;5035017;28;20034;-71
2021/12/08 11:39:13;;;;;;;4.45;1.30;;;8.70;92.10;;;;;;5034738;28;20034;-77
2021/12/08 11:41:55;;;;;;;6.43;1.48;;;8.80;92.10;;;;;;5034289;28;20032;-71
2021/12/08 11:44:26;;;;;;;1.08;0.98;;;8.80;92.00;;;;;;5048160;28;20087;-72
2021/12/08 11:46:55;;;;;;;3.80;1.50;;;8.90;92.30;;;;;;5048356;28;20045;-72
2021/12/08 11:49:22;;;;;;;4.95;1.30;;;8.90;92.00;;;;;;5038316;28;20033;-74
2021/12/08 11:51:51;;;;;;;7.82;2.20;;;8.90;91.90;;;;;;5034209;28;20033;-71
2021/12/08 11:54:28;;;;;;;6.13;2.15;;;9.00;91.90;;;;;;5034223;28;20037;-72
2021/12/08 11:57:04;;;;;;;5.10;1.20;;;8.90;91.90;;;;;;5033804;28;20043;-72
2021/12/08 11:59:29;;;;;;;2.20;0.88;;;9.00;91.90;;;;;;5037089;28;20120;-72
2021/12/08 12:01:55;;;;;;;6.82;1.92;;;9.00;91.90;;;;;;5031918;28;20116;-72
2021/12/08 12:04:21;;;;;;;3.60;1.50;;;9.00;91.80;;;;;;5032805;28;20029;-73
2021/12/08 12:06:47;;;;;;;11.07;1.90;;;9.00;91.80;;;;;;5036560;28;20053;-73
2021/12/08 12:09:12;;;;;;;7.05;2.15;;;9.00;91.80;;;;;;5034620;28;20036;-73
2021/12/08 12:11:38;;;;;;;6.43;1.70;;;9.10;91.80;;;;;;5033005;28;20034;-72
2021/12/08 12:14:04;;;;;;;9.23;1.48;;;9.10;91.80;;;;;;5033244;28;20064;-73
2021/12/08 12:16:32;;;;;;;1.42;1.25;;;9.20;91.80;;;;;;5034753;28;20080;-75
2021/12/08 12:19:04;;;;;;;2.33;0.85;;;9.20;91.70;;;;;;5032346;28;20440;-75
2021/12/08 12:22:10;;;;;;;7.53;2.28;;;9.20;91.70;;;;;;5033136;28;20021;-74
2021/12/08 12:24:48;;;;;;;5.90;1.55;;;9.20;91.70;;;;;;5028860;28;20071;-72
2021/12/08 12:27:35;;;;;;;1.55;0.95;;;9.20;91.70;;;;;;5032848;28;20477;-75
2021/12/08 12:30:08;;;;;;;2.05;0.88;;;9.20;91.70;;;;;;5034412;28;20025;-72
2021/12/08 12:32:42;;;;;;;0.65;0.65;;;9.30;91.70;;;;;;5046563;28;20033;-73
2021/12/08 12:35:37;;;;;;;1.98;0.65;;;9.20;91.70;;;;;;5045269;28;20124;-74
2021/12/08 12:38:08;;;;;;;4.55;1.60;;;9.30;91.70;;;;;;5041016;28;20048;-72
2021/12/08 12:40:43;;;;;;;3.90;1.52;;;9.30;91.70;;;;;;5038712;28;20021;-72
2021/12/08 12:43:12;;;;;;;7.85;1.40;;;9.20;91.60;;;;;;5041372;28;20119;-72
2021/12/08 12:45:43;;;;;;;4.43;1.20;;;9.20;91.70;;;;;;5045975;28;20021;-74
2021/12/08 12:48:23;;;;;;;12.20;1.30;;;9.10;91.60;;;;;;5046712;28;20061;-66
2021/12/08 12:51:06;;;;;;;2.75;1.00;;;9.10;91.70;;;;;;5035837;28;20416;-72
2021/12/08 12:53:43;;;;;;;3.95;1.83;;;9.10;91.80;;;;;;5032525;28;20116;-67
2021/12/08 12:56:26;;;;;;;8.00;1.75;;;9.10;91.80;;;;;;5031284;28;20440;-71
2021/12/08 12:58:53;;;;;;;1.42;1.08;;;9.10;91.70;;;;;;5033150;28;20029;-72
2021/12/08 13:01:32;;;;;;;5.97;1.70;;;9.00;91.80;;;;;;5034902;28;20033;-73
2021/12/08 13:04:05;;;;;;;2.40;1.00;;;9.00;91.80;;;;;;5035206;28;20449;-72
2021/12/08 13:06:56;;;;;;;1.58;1.08;;;9.00;91.80;;;;;;5034553;28;20067;-72
2021/12/08 13:09:39;;;;;;;3.72;1.60;;;9.00;91.90;;;;;;5037886;28;20033;-72
2021/12/08 13:12:20;;;;;;;5.78;1.60;;;9.00;91.90;;;;;;5032718;28;20381;-72
2021/12/08 13:14:48;;;;;;;5.38;1.27;;;9.10;91.90;;;;;;5031314;28;20041;-72
2021/12/08 13:17:16;;;;;;;10.15;1.60;;;9.10;91.90;;;;;;5033579;28;20489;-72
2021/12/08 13:19:54;;;;;;;8.00;1.90;;;9.10;91.80;;;;;;5030610;28;20377;-72
2021/12/08 13:22:48;;;;;;;2.65;1.38;;;9.10;91.80;;;;;;5031778;28;20037;-73
2021/12/08 13:25:44;;;;;;;4.40;1.30;;;9.30;91.70;;;;;;5033236;28;20029;-72
2021/12/08 13:28:33;;;;;;;4.90;1.27;;;9.30;91.70;;;;;;5030363;28;20511;-72
2021/12/08 13:31:15;;;;;;;1.90;0.93;;;9.30;91.60;;;;;;5031229;28;20120;-72
2021/12/08 13:33:43;;;;;;;2.90;1.25;;;9.30;91.60;;;;;;5030304;28;20033;-72
2021/12/08 13:36:31;;;;;;;2.97;1.33;;;9.40;91.60;;;;;;5031041;28;20084;-72
2021/12/08 13:38:57;;;;;;;6.95;1.80;;;9.30;91.50;;;;;;5033762;28;20034;-72
2021/12/08 13:41:24;;;;;;;2.47;1.10;;;9.40;91.50;;;;;;5030067;28;20106;-72
2021/12/08 13:43:50;;;;;;;2.85;1.13;;;9.40;91.60;;;;;;5032743;28;20044;-72
2021/12/08 13:46:45;;;;;;;3.60;1.40;;;9.40;91.50;;;;;;5034478;28;20037;-72
2021/12/08 13:49:18;;;;;;;3.65;1.55;;;9.40;91.50;;;;;;5031106;28;20539;-72
2021/12/08 13:52:05;;;;;;;1.85;1.30;;;9.40;91.30;;;;;;5031505;28;20049;-72
2021/12/08 13:54:36;;;;;;;1.08;0.93;;;9.40;91.40;;;;;;5036674;28;20055;-72
2021/12/08 13:57:22;;;;;;;6.95;2.15;;;9.40;91.40;;;;;;5031715;28;20037;-72
2021/12/08 13:59:52;;;;;;;8.18;2.00;;;9.40;91.30;;;;;;5034199;28;20112;-72
2021/12/08 14:02:23;;;;;;;7.28;1.48;;;9.40;91.30;;;;;;5030864;28;20172;-72
2021/12/08 14:04:48;;;;;;;4.28;1.42;;;9.40;91.30;;;;;;5034878;28;20471;-72
2021/12/08 14:07:18;;;;;;;3.60;1.13;;;9.50;91.30;;;;;;5031561;28;20180;-72